Terminal Aerodrome Forecast
Issued by NWS

Home | Current Version | Previous Version | Graphics & Text | Print | Product List | Glossary On
Versions: 1 2 3 4 5 6 7 8 9 10 11 12 13 14 15 16 17 18 19 20 21 22
039
FTUS43 KOAX 251120
TAFCDR
TAF
KCDR 251120Z 2512/2612 30019KT P6SM SKC
     FM251500 32023G35KT P6SM SKC
     FM252300 34012KT P6SM SKC
     FM260100 27006KT P6SM SKC=

USA.gov is the U.S. government's official web portal to all federal, state and local government web resources and services.